createdAt,value
2018-06-15T00:01:59.928Z,27.37
2018-06-15T00:04:27.785Z,29.23
2018-06-15T00:06:55.560Z,27.90
2018-06-15T00:09:23.700Z,26.67
2018-06-15T00:11:51.668Z,23.97
2018-06-15T00:14:19.700Z,28.50
2018-06-15T00:16:47.549Z,28.47
2018-06-15T00:19:15.404Z,21.87
2018-06-15T00:21:43.259Z,26.97
2018-06-15T00:24:11.996Z,24.27
2018-06-15T00:26:40.308Z,22.10
2018-06-15T00:29:08.519Z,21.43
2018-06-15T00:31:36.364Z,26.43
2018-06-15T00:34:04.336Z,29.17
2018-06-15T00:36:32.208Z,28.13
2018-06-15T00:39:00.061Z,22.40
2018-06-15T00:41:27.828Z,25.00
2018-06-15T00:43:55.700Z,27.40
2018-06-15T00:46:23.558Z,20.77
2018-06-15T00:48:51.402Z,21.20
2018-06-15T00:51:19.333Z,25.37
2018-06-15T00:53:47.167Z,21.30
2018-06-15T00:56:15.116Z,25.17
2018-06-15T00:58:43.017Z,23.40
2018-06-15T01:01:10.872Z,21.03
2018-06-15T01:03:38.928Z,25.83
2018-06-15T01:06:06.812Z,22.30
2018-06-15T01:08:34.580Z,24.50
2018-06-15T01:11:02.456Z,26.20
2018-06-15T01:13:30.210Z,24.83
2018-06-15T01:15:58.105Z,18.53
2018-06-15T01:18:25.957Z,20.63
2018-06-15T01:20:53.822Z,22.23
2018-06-15T01:23:21.720Z,24.40
2018-06-15T01:25:49.452Z,23.47
2018-06-15T01:28:17.372Z,20.97
2018-06-15T01:30:45.193Z,24.53
2018-06-15T01:33:12.953Z,19.33
2018-06-15T01:35:40.835Z,24.47
2018-06-15T01:38:08.580Z,22.93
2018-06-15T01:40:36.499Z,21.33
2018-06-15T01:43:04.325Z,25.87
2018-06-15T01:45:32.259Z,23.20
2018-06-15T01:48:00.068Z,26.07
2018-06-15T01:50:27.951Z,21.50
2018-06-15T01:52:56.048Z,21.67
2018-06-15T01:55:23.864Z,22.60
2018-06-15T01:57:52.124Z,28.23
2018-06-15T02:00:19.940Z,31.83
2018-06-15T02:02:47.793Z,30.60
2018-06-15T02:05:16.025Z,27.90
2018-06-15T02:07:43.786Z,28.33
2018-06-15T02:10:11.584Z,33.97
2018-06-15T02:12:39.760Z,23.33
2018-06-15T02:15:07.654Z,29.57
2018-06-15T02:17:35.400Z,22.13
2018-06-15T02:20:03.304Z,23.10
2018-06-15T02:22:31.153Z,23.33
2018-06-15T02:24:59.036Z,20.00
2018-06-15T02:27:26.776Z,25.63
2018-06-15T02:29:54.636Z,25.00
2018-06-15T02:32:22.594Z,26.17
2018-06-15T02:34:50.454Z,22.83
2018-06-15T02:37:18.340Z,22.30
2018-06-15T02:39:46.208Z,23.20
2018-06-15T02:42:13.998Z,26.07
2018-06-15T02:44:41.882Z,21.40
2018-06-15T02:47:09.808Z,24.33
2018-06-15T02:49:37.692Z,19.83
2018-06-15T02:52:05.621Z,19.97
2018-06-15T02:54:33.420Z,20.87
2018-06-15T02:57:01.489Z,23.33
2018-06-15T02:59:29.193Z,22.80
2018-06-15T03:01:57.116Z,24.07
2018-06-15T03:04:24.952Z,29.57
2018-06-15T03:06:52.758Z,25.57
2018-06-15T03:09:20.659Z,23.17
2018-06-15T03:11:48.424Z,24.40
2018-06-15T03:14:16.210Z,24.77
2018-06-15T03:16:44.027Z,25.10
2018-06-15T03:19:11.931Z,30.50
2018-06-15T03:21:39.768Z,28.13
2018-06-15T03:24:07.641Z,25.70
2018-06-15T03:26:35.536Z,22.90
2018-06-15T03:29:03.404Z,25.07
2018-06-15T03:31:31.238Z,23.87
2018-06-15T03:33:59.144Z,22.83
2018-06-15T03:36:26.970Z,23.93
2018-06-15T03:38:54.848Z,19.73
2018-06-15T03:41:22.719Z,23.23
2018-06-15T03:43:50.584Z,17.67
2018-06-15T03:46:18.636Z,18.70
2018-06-15T03:48:46.451Z,14.47
2018-06-15T03:51:14.292Z,16.33
2018-06-15T03:53:42.181Z,15.27
2018-06-15T03:56:09.918Z,16.23
2018-06-15T03:58:37.711Z,13.43
2018-06-15T04:01:05.559Z,10.43
2018-06-15T04:03:33.310Z,13.83
2018-06-15T04:06:01.212Z,14.23
2018-06-15T04:08:28.969Z,15.87
2018-06-15T04:10:56.820Z,14.83
2018-06-15T04:13:24.682Z,10.30
2018-06-15T04:15:52.547Z,11.60
2018-06-15T04:18:20.342Z,11.63
2018-06-15T04:20:48.180Z,13.60
2018-06-15T04:23:16.083Z,12.07
2018-06-15T04:25:43.924Z,12.30
2018-06-15T04:28:11.733Z,11.93
2018-06-15T04:30:39.564Z,11.40
2018-06-15T04:33:07.418Z,10.67
2018-06-15T04:35:35.276Z,11.73
2018-06-15T04:38:03.272Z,12.90
2018-06-15T04:40:31.157Z,12.23
2018-06-15T04:42:59.001Z,11.67
2018-06-15T04:45:26.868Z,11.78
2018-06-15T04:47:54.636Z,11.28
2018-06-15T04:50:22.516Z,14.00
2018-06-15T04:52:50.264Z,9.18
2018-06-15T04:55:18.132Z,15.35
2018-06-15T04:57:46.072Z,11.90
2018-06-15T05:00:14.422Z,11.73
2018-06-15T05:02:42.272Z,13.90
2018-06-15T05:05:10.006Z,10.68
2018-06-15T05:07:37.911Z,11.35
2018-06-15T05:10:05.984Z,14.33
2018-06-15T05:12:33.808Z,15.10
2018-06-15T05:15:01.687Z,12.15
2018-06-15T05:17:29.561Z,11.38
2018-06-15T05:19:57.422Z,12.50
2018-06-15T05:22:25.340Z,11.12
2018-06-15T05:24:53.203Z,13.05
2018-06-15T05:27:21.262Z,14.38
2018-06-15T05:29:49.153Z,12.00
2018-06-15T05:32:17.104Z,11.78
2018-06-15T05:34:44.973Z,15.25
2018-06-15T05:37:12.945Z,16.10
2018-06-15T05:39:45.542Z,17.62
2018-06-15T05:42:13.502Z,13.15
2018-06-15T05:44:41.469Z,13.48
2018-06-15T05:47:09.353Z,15.80
2018-06-15T05:49:37.182Z,16.20
2018-06-15T05:52:05.069Z,13.98
2018-06-15T05:54:32.904Z,13.48
2018-06-15T05:57:00.963Z,12.35
2018-06-15T05:59:29.043Z,14.90
2018-06-15T06:01:57.062Z,15.53
2018-06-15T06:04:25.020Z,12.45
2018-06-15T06:06:52.947Z,12.03
2018-06-15T06:09:20.928Z,12.75
2018-06-15T06:11:48.944Z,15.88
2018-06-15T06:14:16.816Z,12.85
2018-06-15T06:16:44.752Z,13.90
2018-06-15T06:19:12.617Z,11.80
2018-06-15T06:21:40.493Z,13.90
2018-06-15T06:24:08.345Z,15.35
2018-06-15T06:26:36.356Z,11.83
2018-06-15T06:29:04.316Z,14.33
2018-06-15T06:31:32.152Z,12.13
2018-06-15T06:34:00.244Z,12.95
2018-06-15T06:36:28.114Z,14.65
2018-06-15T06:38:55.972Z,12.93
2018-06-15T06:41:23.824Z,11.08
2018-06-15T06:43:51.555Z,18.60
2018-06-15T06:46:19.249Z,12.03
2018-06-15T06:48:47.160Z,12.18
2018-06-15T06:51:14.888Z,12.50
2018-06-15T06:53:42.768Z,18.62
2018-06-15T06:56:10.629Z,10.82
2018-06-15T06:58:38.638Z,12.80
2018-06-15T07:01:06.470Z,17.95
2018-06-15T07:03:34.227Z,8.25
2018-06-15T07:06:02.615Z,9.88
2018-06-15T07:08:30.729Z,11.28
2018-06-15T07:10:58.696Z,12.03
2018-06-15T07:13:26.533Z,14.65
2018-06-15T07:15:54.409Z,11.15
2018-06-15T07:18:22.287Z,10.15
2018-06-15T07:20:50.172Z,8.48
2018-06-15T07:23:17.894Z,7.67
2018-06-15T07:25:45.766Z,9.05
2018-06-15T07:28:13.527Z,12.35
2018-06-15T07:30:41.584Z,11.55
2018-06-15T07:33:09.477Z,8.58
2018-06-15T07:35:37.376Z,8.35
2018-06-15T07:38:05.617Z,10.68
2018-06-15T07:40:33.292Z,8.98
2018-06-15T07:43:01.150Z,10.07
2018-06-15T07:45:29.764Z,7.90
2018-06-15T07:47:57.600Z,10.57
2018-06-15T07:50:25.489Z,11.57
2018-06-15T07:52:53.161Z,7.97
2018-06-15T07:55:21.008Z,7.53
2018-06-15T07:57:48.792Z,7.30
2018-06-15T08:00:16.627Z,9.13
2018-06-15T08:02:44.522Z,6.20
2018-06-15T08:05:12.285Z,5.40
2018-06-15T08:07:40.135Z,5.87
2018-06-15T08:10:08.081Z,3.93
2018-06-15T08:12:35.873Z,5.37
2018-06-15T08:15:03.871Z,7.70
2018-06-15T08:17:31.701Z,3.37
2018-06-15T08:19:59.584Z,4.65
2018-06-15T08:22:27.520Z,4.67
2018-06-15T08:24:55.312Z,4.33
2018-06-15T08:27:23.305Z,4.42
2018-06-15T08:29:51.161Z,4.78
2018-06-15T08:32:19.120Z,5.08
2018-06-15T08:34:47.478Z,8.38
2018-06-15T08:37:15.294Z,5.15
2018-06-15T08:39:43.162Z,11.65
2018-06-15T08:42:11.018Z,4.90
2018-06-15T08:44:38.872Z,4.85
2018-06-15T08:47:06.742Z,5.22
2018-06-15T08:49:34.655Z,5.08
2018-06-15T08:52:03.095Z,6.80
2018-06-15T08:54:30.937Z,9.08
2018-06-15T08:56:58.865Z,6.53
2018-06-15T08:59:26.678Z,7.37
2018-06-15T09:01:54.687Z,4.97
2018-06-15T09:04:22.457Z,6.03
2018-06-15T09:06:50.297Z,4.47
2018-06-15T09:09:18.189Z,5.28
2018-06-15T09:11:46.057Z,5.03
2018-06-15T09:14:13.929Z,8.83
2018-06-15T09:16:42.097Z,4.65
2018-06-15T09:19:09.981Z,10.85
2018-06-15T09:21:37.880Z,4.67
2018-06-15T09:24:05.680Z,5.42
2018-06-15T09:26:33.548Z,6.13
2018-06-15T09:29:01.417Z,8.43
2018-06-15T09:31:29.336Z,4.37
2018-06-15T09:33:58.816Z,3.95
2018-06-15T09:36:26.888Z,4.53
2018-06-15T09:38:54.788Z,4.00
2018-06-15T09:41:22.649Z,10.70
2018-06-15T09:43:50.506Z,3.80
2018-06-15T09:46:18.378Z,6.80
2018-06-15T09:48:46.217Z,5.67
2018-06-15T09:51:15.432Z,6.58
2018-06-15T09:53:43.272Z,7.10
2018-06-15T09:56:11.995Z,6.25
2018-06-15T09:58:39.848Z,4.25
2018-06-15T10:01:08.212Z,6.47
2018-06-15T10:03:36.396Z,7.20
2018-06-15T10:06:04.523Z,6.92
2018-06-15T10:08:32.440Z,9.83
2018-06-15T10:11:00.327Z,7.30
2018-06-15T10:13:28.201Z,5.12
2018-06-15T10:15:56.293Z,4.17
2018-06-15T10:18:25.179Z,4.47
2018-06-15T10:20:53.127Z,3.62
2018-06-15T10:23:21.060Z,4.00
2018-06-15T10:25:49.510Z,4.15
2018-06-15T10:28:18.205Z,6.75
2018-06-15T10:30:46.009Z,5.08
2018-06-15T10:33:13.810Z,7.10
2018-06-15T10:35:41.665Z,7.83
2018-06-15T10:38:10.394Z,7.40
2018-06-15T10:40:38.328Z,6.20
2018-06-15T10:43:06.172Z,7.03
2018-06-15T10:45:34.071Z,8.18
2018-06-15T10:48:02.104Z,5.83
2018-06-15T10:50:30.877Z,5.30
2018-06-15T10:52:59.003Z,4.70
2018-06-15T10:55:26.840Z,5.70
2018-06-15T10:57:54.712Z,7.20
2018-06-15T11:00:22.569Z,4.20
2018-06-15T11:02:50.557Z,7.05
2018-06-15T11:05:18.518Z,5.17
2018-06-15T11:07:46.412Z,5.60
2018-06-15T11:10:14.607Z,5.58
2018-06-15T11:12:42.444Z,3.98
2018-06-15T11:15:10.304Z,4.45
2018-06-15T11:17:38.157Z,4.85
2018-06-15T11:20:06.241Z,5.50
2018-06-15T11:22:34.112Z,6.22
2018-06-15T11:25:02.001Z,5.12
2018-06-15T11:27:29.830Z,4.60
2018-06-15T11:29:57.697Z,5.65
2018-06-15T11:32:25.467Z,7.33
2018-06-15T11:34:53.155Z,6.22
2018-06-15T11:37:21.045Z,4.95
2018-06-15T11:39:48.861Z,5.40
2018-06-15T11:42:16.767Z,7.30
2018-06-15T11:44:44.604Z,3.70
2018-06-15T11:47:12.406Z,6.25
2018-06-15T11:49:41.536Z,8.30
2018-06-15T11:52:13.148Z,6.75
2018-06-15T11:54:41.028Z,3.87
2018-06-15T11:57:08.856Z,5.08
2018-06-15T11:59:36.847Z,3.85
2018-06-15T12:02:04.732Z,4.28
2018-06-15T12:04:32.508Z,4.97
2018-06-15T12:07:01.080Z,3.92
2018-06-15T12:09:28.841Z,3.50
2018-06-15T12:11:56.683Z,4.65
2018-06-15T12:14:24.671Z,3.60
2018-06-15T12:16:52.448Z,4.20
2018-06-15T12:19:20.285Z,4.87
2018-06-15T12:21:48.213Z,7.47
2018-06-15T12:24:16.046Z,4.53
2018-06-15T12:26:44.998Z,3.62
2018-06-15T12:29:12.835Z,3.90
2018-06-15T12:31:40.688Z,4.78
2018-06-15T12:34:08.615Z,3.92
2018-06-15T12:36:36.428Z,4.05
2018-06-15T12:39:06.105Z,7.50
2018-06-15T12:41:33.961Z,7.40
2018-06-15T12:44:01.804Z,6.42
2018-06-15T12:46:29.737Z,7.10
2018-06-15T12:48:57.513Z,6.92
2018-06-15T12:51:25.374Z,10.90
2018-06-15T12:53:53.540Z,5.15
2018-06-15T12:56:22.335Z,4.58
2018-06-15T12:58:50.700Z,3.52
2018-06-15T13:01:18.557Z,5.50
2018-06-15T13:03:46.432Z,3.87
2018-06-15T13:06:14.503Z,4.47
2018-06-15T13:08:42.421Z,4.25
2018-06-15T13:11:10.249Z,4.85
2018-06-15T13:13:38.184Z,6.67
2018-06-15T13:16:06.089Z,5.17
2018-06-15T13:18:33.941Z,5.20
2018-06-15T13:21:02.477Z,5.22
2018-06-15T13:23:30.599Z,4.25
2018-06-15T13:25:59.053Z,6.22
2018-06-15T13:28:26.854Z,6.67
2018-06-15T13:30:55.189Z,5.20
2018-06-15T13:33:23.026Z,9.18
2018-06-15T13:35:51.039Z,12.05
2018-06-15T13:38:18.953Z,5.72
2018-06-15T13:40:46.981Z,5.40
2018-06-15T13:43:14.998Z,5.97
2018-06-15T13:45:43.032Z,7.40
2018-06-15T13:48:10.911Z,4.58
2018-06-15T13:50:38.701Z,4.20
2018-06-15T13:53:06.549Z,4.78
2018-06-15T13:55:34.373Z,5.50
2018-06-15T13:58:02.176Z,4.83
2018-06-15T14:00:30.084Z,5.42
2018-06-15T14:02:57.924Z,5.55
2018-06-15T14:05:25.820Z,5.15
2018-06-15T14:07:53.449Z,7.28
2018-06-15T14:10:21.340Z,4.40
2018-06-15T14:12:49.264Z,4.95
2018-06-15T14:15:17.036Z,4.30
2018-06-15T14:17:44.931Z,5.60
2018-06-15T14:20:12.686Z,8.15
2018-06-15T14:22:40.547Z,5.00
2018-06-15T14:25:08.450Z,4.17
2018-06-15T14:27:36.317Z,4.22
2018-06-15T14:30:04.336Z,5.70
2018-06-15T14:32:32.228Z,5.03
2018-06-15T14:35:00.117Z,4.08
2018-06-15T14:37:27.971Z,5.80
2018-06-15T14:39:55.855Z,3.72
2018-06-15T14:42:23.688Z,4.55
2018-06-15T14:44:51.576Z,6.78
2018-06-15T14:47:20.259Z,3.98
2018-06-15T14:49:48.120Z,4.22
2018-06-15T14:52:16.100Z,5.78
2018-06-15T14:54:43.951Z,3.75
2018-06-15T14:57:11.796Z,4.85
2018-06-15T14:59:39.608Z,3.45
2018-06-15T15:02:07.648Z,3.40
2018-06-15T15:04:36.107Z,6.58
2018-06-15T15:07:06.228Z,7.05
2018-06-15T15:09:34.045Z,3.50
2018-06-15T15:12:01.910Z,3.62
2018-06-15T15:14:29.793Z,4.55
2018-06-15T15:29:59.218Z,3.62
2018-06-15T15:32:29.639Z,3.65
2018-06-15T15:34:59.514Z,4.17
2018-06-15T15:37:28.556Z,3.70
2018-06-15T15:39:58.200Z,4.10
2018-06-15T15:42:27.656Z,3.50
2018-06-15T15:44:55.634Z,3.95
2018-06-15T15:47:23.486Z,5.50
2018-06-15T15:49:51.427Z,5.67
2018-06-15T15:52:19.304Z,6.10
2018-06-15T15:54:47.187Z,5.33
2018-06-15T15:57:14.788Z,3.90
2018-06-15T15:59:42.729Z,4.22
2018-06-15T16:02:10.616Z,5.33
2018-06-15T16:04:38.442Z,4.15
2018-06-15T16:07:06.300Z,6.80
2018-06-15T16:09:33.960Z,4.80
2018-06-15T16:12:01.917Z,3.80
2018-06-15T16:14:29.933Z,4.37
2018-06-15T16:16:57.688Z,5.22
2018-06-15T16:19:25.540Z,7.42
2018-06-15T16:21:53.408Z,6.60
2018-06-15T16:24:21.320Z,7.85
2018-06-15T16:26:49.131Z,8.30
2018-06-15T16:29:16.752Z,4.58
2018-06-15T16:31:44.606Z,4.92
2018-06-15T16:34:12.445Z,5.30
2018-06-15T16:36:40.324Z,3.95
2018-06-15T16:39:08.780Z,4.22
2018-06-15T16:41:36.836Z,10.25
2018-06-15T16:44:04.652Z,5.78
2018-06-15T16:46:32.489Z,11.80
2018-06-15T16:49:00.273Z,9.20
2018-06-15T16:51:28.162Z,6.33
2018-06-15T16:53:56.000Z,4.30
2018-06-15T16:56:23.821Z,6.03
2018-06-15T16:58:51.893Z,9.05
2018-06-15T17:01:19.813Z,4.08
2018-06-15T17:03:47.768Z,6.37
2018-06-15T17:06:15.712Z,6.05
2018-06-15T17:08:43.803Z,5.55
2018-06-15T17:11:11.674Z,7.53
2018-06-15T17:13:39.660Z,4.47
2018-06-15T17:16:07.829Z,5.33
2018-06-15T17:18:35.793Z,8.17
2018-06-15T17:21:03.588Z,10.67
2018-06-15T17:23:31.732Z,5.70
2018-06-15T17:25:59.647Z,5.27
2018-06-15T17:28:27.554Z,4.63
2018-06-15T17:30:55.578Z,5.05
2018-06-15T17:33:23.521Z,5.08
2018-06-15T17:35:51.500Z,5.60
2018-06-15T17:38:19.471Z,7.45
2018-06-15T17:40:47.344Z,7.40
2018-06-15T17:43:15.393Z,5.90
2018-06-15T17:45:43.240Z,4.20
2018-06-15T17:48:11.057Z,7.35
2018-06-15T17:50:38.908Z,8.35
2018-06-15T18:06:06.808Z,5.83
2018-06-15T18:08:34.708Z,4.57
2018-06-15T18:11:02.616Z,4.60
2018-06-15T18:13:30.619Z,5.80
2018-06-15T18:15:58.370Z,4.60
2018-06-15T18:18:26.462Z,6.30
2018-06-15T18:20:54.288Z,9.83
2018-06-15T18:23:22.168Z,6.63
2018-06-15T18:25:50.159Z,8.00
2018-06-15T18:28:17.911Z,7.07
2018-06-15T18:30:46.120Z,6.90
2018-06-15T18:33:14.020Z,5.73
2018-06-15T18:35:42.107Z,5.67
2018-06-15T18:38:09.970Z,7.37
2018-06-15T18:40:37.746Z,5.53
2018-06-15T18:43:05.616Z,8.83
2018-06-15T18:45:33.500Z,6.13
2018-06-15T18:48:01.361Z,7.83
2018-06-15T18:50:29.249Z,4.97
2018-06-15T18:52:56.979Z,6.70
2018-06-15T18:55:24.752Z,11.70
2018-06-15T18:57:52.622Z,8.03
2018-06-15T19:00:20.512Z,8.63
2018-06-15T19:02:48.367Z,5.73
2018-06-15T19:05:16.724Z,6.57
2018-06-15T19:07:44.668Z,5.27
2018-06-15T19:10:12.485Z,11.30
2018-06-15T19:12:40.441Z,8.40
2018-06-15T19:15:08.344Z,9.73
2018-06-15T19:17:36.081Z,9.03
2018-06-15T19:20:04.045Z,9.73
2018-06-15T19:22:31.820Z,6.47
2018-06-15T19:24:59.680Z,12.13
2018-06-15T19:27:27.558Z,11.07
2018-06-15T19:29:55.429Z,7.87
2018-06-15T19:32:23.464Z,9.87
2018-06-15T19:34:51.297Z,16.27
2018-06-15T19:37:19.140Z,22.03
2018-06-15T19:39:46.992Z,17.03
2018-06-15T19:42:14.855Z,13.10
2018-06-15T19:44:42.762Z,10.73
2018-06-15T19:47:10.601Z,16.07
2018-06-15T19:49:38.376Z,13.10
2018-06-15T19:52:06.340Z,9.67
2018-06-15T19:54:34.202Z,8.07
2018-06-15T19:57:02.100Z,13.23
2018-06-15T19:59:29.937Z,13.10
2018-06-15T20:01:57.692Z,10.83
2018-06-15T20:04:26.995Z,17.10
2018-06-15T20:06:54.648Z,17.27
2018-06-15T20:09:22.633Z,14.37
2018-06-15T20:11:50.508Z,13.17
2018-06-15T20:14:18.270Z,11.70
2018-06-15T20:16:46.137Z,18.80
2018-06-15T20:19:13.908Z,11.57
2018-06-15T20:21:41.889Z,17.97
2018-06-15T20:24:09.680Z,15.20
2018-06-15T20:26:37.408Z,21.67
2018-06-15T20:29:05.388Z,18.40
2018-06-15T20:31:33.270Z,18.63
2018-06-15T20:34:01.244Z,20.43
2018-06-15T20:36:29.096Z,16.87
2018-06-15T20:38:58.616Z,11.30
2018-06-15T20:41:26.692Z,12.70
2018-06-15T20:43:57.990Z,12.80
2018-06-15T20:46:26.800Z,12.87
2018-06-15T20:48:55.500Z,12.47
2018-06-15T20:51:23.375Z,14.10
2018-06-15T20:53:52.342Z,17.77
2018-06-15T20:56:20.828Z,28.67
2018-06-15T21:11:48.832Z,25.43
2018-06-15T21:14:16.573Z,11.77
2018-06-15T21:16:44.409Z,15.67
2018-06-15T21:19:12.292Z,22.30
2018-06-15T21:21:40.235Z,14.03
2018-06-15T21:24:08.033Z,25.30
2018-06-15T21:26:35.959Z,20.50
2018-06-15T21:29:04.080Z,20.07
2018-06-15T21:31:31.976Z,25.50
2018-06-15T21:33:59.841Z,15.53
2018-06-15T21:36:27.715Z,14.13
2018-06-15T21:38:55.553Z,16.07
2018-06-15T21:41:23.439Z,13.20
2018-06-15T21:43:51.804Z,15.27
2018-06-15T21:46:19.664Z,14.73
2018-06-15T21:48:47.838Z,17.00
2018-06-15T21:51:15.739Z,14.70
2018-06-15T21:53:43.497Z,16.37
2018-06-15T21:56:11.438Z,15.60
2018-06-15T21:58:39.344Z,12.70
2018-06-15T22:01:07.220Z,14.00
2018-06-15T22:03:35.180Z,12.67
2018-06-15T22:06:03.114Z,14.67
2018-06-15T22:08:31.007Z,11.97
2018-06-15T22:10:58.746Z,16.90
2018-06-15T22:13:26.819Z,15.67
2018-06-15T22:15:54.789Z,18.80
2018-06-15T22:18:22.560Z,15.20
2018-06-15T22:20:50.446Z,17.10
2018-06-15T22:23:18.336Z,18.87
2018-06-15T22:25:46.244Z,20.27
2018-06-15T22:28:14.045Z,25.87
2018-06-15T22:30:41.815Z,17.73
2018-06-15T22:33:09.669Z,16.73
2018-06-15T22:35:37.438Z,34.10
2018-06-15T22:38:05.202Z,19.33
2018-06-15T22:40:33.255Z,23.67
2018-06-15T22:43:01.140Z,20.90
2018-06-15T22:45:28.952Z,27.40
2018-06-15T22:47:57.094Z,17.20
2018-06-15T22:50:24.964Z,14.43
2018-06-15T22:52:53.044Z,13.90
2018-06-15T22:55:23.650Z,12.63
2018-06-15T22:57:55.939Z,16.13
2018-06-15T23:00:23.838Z,13.80
2018-06-15T23:02:51.677Z,17.50
2018-06-15T23:05:19.544Z,16.57
2018-06-15T23:07:47.392Z,16.57
2018-06-15T23:10:15.171Z,17.80
2018-06-15T23:12:43.228Z,14.10
2018-06-15T23:15:11.238Z,16.53
2018-06-15T23:17:39.085Z,21.43
2018-06-15T23:20:10.050Z,20.93
2018-06-15T23:22:37.982Z,22.73
2018-06-15T23:25:07.369Z,22.00
2018-06-15T23:27:35.355Z,18.30
2018-06-15T23:30:03.397Z,20.83
2018-06-15T23:32:32.091Z,25.77
2018-06-15T23:34:59.872Z,20.67
2018-06-15T23:37:27.801Z,21.67
2018-06-15T23:39:55.776Z,18.87
2018-06-15T23:42:33.328Z,21.93
2018-06-15T23:45:10.703Z,17.17
2018-06-15T23:47:38.526Z,17.13
2018-06-15T23:50:06.557Z,17.10
2018-06-15T23:52:34.328Z,14.60
2018-06-15T23:55:03.700Z,18.73
2018-06-15T23:57:31.522Z,14.00
2018-06-15T23:59:59.369Z,18.87
